Time;durP1;ratioP1;P1;durP2;ratioP2;P2;SDS_P1;SDS_P2;PMS_P1;PMS_P2;Temp;Humidity;BMP_temperature;BMP_pressure;BME280_temperature;BME280_humidity;BME280_pressure;Samples;Min_cycle;Max_cycle;Signal;HPM_P1;HPM_P2
2023/11/18 10:57:58;;;;;;;9.80;6.90;;;;;;;8.23;94.76;99921.02;107773;1280;559702;-60
2023/11/18 11:00:26;;;;;;;10.40;6.80;;;;;;;9.96;80.75;99913.82;108080;1277;21987;-69
2023/11/18 11:02:58;;;;;;;8.90;6.30;;;;;;;10.34;76.20;99907.90;108186;1281;23645;-62
2023/11/18 11:05:35;;;;;;;9.30;6.00;;;;;;;10.56;74.06;99903.11;108141;1287;21989;-69
2023/11/18 11:08:04;;;;;;;7.80;5.70;;;;;;;10.69;72.97;99909.70;108149;1287;21997;-62
2023/11/18 11:10:30;;;;;;;8.10;6.00;;;;;;;10.78;72.26;99906.73;107983;1280;206908;-61
2023/11/18 11:12:57;;;;;;;8.50;5.60;;;;;;;10.85;71.33;99903.39;108050;1285;21970;-60
2023/11/18 11:15:34;;;;;;;11.20;6.20;;;;;;;10.92;70.68;99905.90;108122;1285;21983;-68
2023/11/18 11:18:14;;;;;;;9.20;6.00;;;;;;;10.95;70.03;99898.45;108031;1274;22019;-65
2023/11/18 11:20:48;;;;;;;13.20;6.30;;;;;;;10.99;69.44;99898.56;108048;1283;22004;-67
2023/11/18 11:23:35;;;;;;;9.00;5.50;;;;;;;11.00;68.95;99894.31;108184;1284;22061;-60
2023/11/18 11:26:13;;;;;;;8.20;5.90;;;;;;;11.03;68.80;99889.16;108106;1280;21989;-59
2023/11/18 11:28:46;;;;;;;9.60;5.90;;;;;;;11.00;67.36;99885.89;108071;1280;22025;-60
2023/11/18 11:31:23;;;;;;;12.30;5.50;;;;;;;11.02;67.99;99880.94;108076;1280;21991;-60
2023/11/18 11:34:02;;;;;;;9.50;5.80;;;;;;;11.05;68.24;99869.27;108139;1285;22096;-69
2023/11/18 11:36:33;;;;;;;9.90;6.70;;;;;;;11.11;68.17;99865.62;108151;1276;21988;-68
2023/11/18 11:39:00;;;;;;;11.50;6.30;;;;;;;11.17;67.81;99862.67;108002;1274;21985;-69
2023/11/18 11:41:27;;;;;;;10.90;5.90;;;;;;;11.24;67.65;99861.13;108052;1279;21993;-69
2023/11/18 11:43:58;;;;;;;13.70;6.30;;;;;;;11.26;67.38;99861.41;108256;1284;21981;-67
2023/11/18 11:46:26;;;;;;;10.20;6.70;;;;;;;11.30;67.13;99856.59;108323;1284;21990;-59
2023/11/18 11:48:53;;;;;;;13.40;5.80;;;;;;;11.36;66.55;99852.95;108172;1284;23038;-60
2023/11/18 11:51:26;;;;;;;9.90;6.00;;;;;;;11.38;66.36;99854.11;108243;1284;21993;-69
2023/11/18 11:54:01;;;;;;;10.90;5.30;;;;;;;11.40;66.31;99850.20;108169;1284;21981;-61
2023/11/18 11:56:59;;;;;;;10.90;6.10;;;;;;;11.41;65.70;99839.48;108092;1284;21981;-60
2023/11/18 11:59:57;;;;;;;8.90;6.10;;;;;;;11.41;65.64;99845.25;108081;1283;21993;-69
2023/11/18 12:02:32;;;;;;;9.40;6.20;;;;;;;11.43;65.67;99844.69;108074;1284;21987;-60
2023/11/18 12:04:58;;;;;;;9.50;6.30;;;;;;;11.43;65.54;99842.57;108049;1283;22253;-69
2023/11/18 12:07:27;;;;;;;9.70;6.50;;;;;;;11.43;65.30;99835.20;108132;1284;21997;-69
2023/11/18 12:09:57;;;;;;;10.30;6.70;;;;;;;11.44;65.32;99828.15;108058;1284;22021;-70
2023/11/18 12:12:27;;;;;;;11.00;6.20;;;;;;;11.44;64.93;99827.10;108112;1281;23048;-62
2023/11/18 12:14:57;;;;;;;15.30;7.30;;;;;;;11.44;64.71;99817.09;108072;1284;22164;-60
2023/11/18 12:17:24;;;;;;;9.70;6.50;;;;;;;11.42;64.44;99819.58;108102;1284;22206;-61
2023/11/18 12:19:50;;;;;;;12.20;7.10;;;;;;;11.42;64.69;99820.29;106627;1284;1003099;-69
2023/11/18 12:22:33;;;;;;;9.20;6.30;;;;;;;11.42;64.28;99817.11;108091;1285;22451;-60
2023/11/18 12:25:24;;;;;;;10.70;6.80;;;;;;;11.41;64.36;99811.88;108100;1283;21987;-70
2023/11/18 12:27:52;;;;;;;10.50;6.80;;;;;;;11.41;64.33;99806.63;108208;1280;21988;-69
2023/11/18 12:30:22;;;;;;;11.00;6.80;;;;;;;11.41;64.43;99816.98;108266;1274;22003;-69
2023/11/18 12:33:09;;;;;;;9.00;6.40;;;;;;;11.41;64.34;99822.77;108322;1274;21984;-69
2023/11/18 12:35:52;;;;;;;8.90;6.00;;;;;;;11.41;64.31;99826.29;108101;1284;21988;-59
2023/11/18 12:38:59;;;;;;;10.60;7.00;;;;;;;11.41;64.17;99825.77;108135;1275;21993;-59
2023/11/18 12:41:37;;;;;;;10.10;7.00;;;;;;;11.41;64.22;99830.16;108345;1280;22096;-68
2023/11/18 12:44:21;;;;;;;12.20;6.40;;;;;;;11.42;64.42;99841.02;108131;1284;22448;-59
2023/11/18 12:46:57;;;;;;;13.50;7.40;;;;;;;11.42;64.17;99850.67;108229;1284;21984;-69
2023/11/18 12:49:23;;;;;;;10.90;6.90;;;;;;;11.43;64.22;99854.71;108033;1285;21999;-60
2023/11/18 12:51:54;;;;;;;9.80;6.50;;;;;;;11.42;64.31;99853.66;108057;1284;21985;-66
2023/11/18 12:54:21;;;;;;;9.70;7.30;;;;;;;11.42;64.22;99858.08;108050;1285;23097;-69
2023/11/18 12:56:53;;;;;;;13.30;7.60;;;;;;;11.41;64.33;99857.55;108161;1285;21997;-68
2023/11/18 12:59:20;;;;;;;9.50;6.50;;;;;;;11.41;64.32;99851.42;108111;1280;21980;-68
2023/11/18 13:02:03;;;;;;;9.90;6.60;;;;;;;11.41;64.26;99842.64;108033;1284;21990;-70
2023/11/18 13:04:33;;;;;;;9.80;5.90;;;;;;;11.41;64.15;99838.94;108036;1284;21979;-60
2023/11/18 13:07:00;;;;;;;12.00;7.00;;;;;;;11.40;63.96;99836.67;108088;1284;23838;-69
2023/11/18 13:09:26;;;;;;;11.10;7.10;;;;;;;11.40;64.04;99843.17;108107;1285;22004;-68
2023/11/18 13:11:55;;;;;;;12.10;7.60;;;;;;;11.40;64.03;99846.34;108227;1283;21995;-60
2023/11/18 13:14:24;;;;;;;10.20;6.80;;;;;;;11.38;63.79;99850.95;108169;1280;21994;-68
2023/11/18 13:16:54;;;;;;;15.20;7.70;;;;;;;11.37;63.91;99849.58;108121;1281;22080;-69
2023/11/18 13:19:24;;;;;;;9.70;7.20;;;;;;;11.36;63.98;99846.79;108258;1277;21999;-67
2023/11/18 13:21:49;;;;;;;13.70;7.10;;;;;;;11.36;63.94;99840.82;108335;1280;22027;-68
2023/11/18 13:24:15;;;;;;;11.00;6.80;;;;;;;11.36;63.93;99836.60;108322;1281;22149;-60
2023/11/18 13:26:41;;;;;;;9.60;6.50;;;;;;;11.34;63.90;99834.17;108292;1284;21980;-59
2023/11/18 13:29:06;;;;;;;13.10;6.80;;;;;;;11.35;63.76;99836.98;108220;1277;21986;-60
2023/11/18 13:31:32;;;;;;;11.00;6.70;;;;;;;11.36;63.54;99838.18;108297;1277;21984;-60
2023/11/18 13:33:58;;;;;;;13.20;7.10;;;;;;;11.36;63.58;99837.48;108150;1284;22162;-68
2023/11/18 13:36:24;;;;;;;16.70;11.80;;;;;;;11.31;63.32;99834.78;108102;1283;21983;-60
2023/11/18 13:38:50;;;;;;;48.70;26.10;;;;;;;11.28;63.61;99840.27;108035;1277;21989;-60
2023/11/18 13:41:31;;;;;;;43.00;33.90;;;;;;;11.31;63.84;99835.66;108204;1278;21983;-68
2023/11/18 13:43:58;;;;;;;27.00;17.60;;;;;;;11.34;63.85;99828.91;108202;1280;21988;-60
2023/11/18 13:46:24;;;;;;;71.70;46.00;;;;;;;11.37;63.81;99823.23;108227;1273;21984;-68
2023/11/18 13:48:51;;;;;;;55.10;38.60;;;;;;;11.40;63.75;99830.00;108237;1284;21977;-71
2023/11/18 13:51:19;;;;;;;19.80;13.80;;;;;;;11.42;63.61;99829.42;108294;1274;22028;-60
2023/11/18 13:53:46;;;;;;;15.60;11.50;;;;;;;11.44;63.37;99821.11;108113;1280;23278;-60
2023/11/18 13:56:12;;;;;;;16.30;8.60;;;;;;;11.45;63.26;99827.61;108190;1284;22002;-68
2023/11/18 13:58:40;;;;;;;12.00;8.20;;;;;;;11.44;63.17;99832.19;108248;1284;22451;-70
2023/11/18 14:01:10;;;;;;;11.00;7.30;;;;;;;11.45;63.24;99833.23;108151;1281;21980;-69
2023/11/18 14:03:36;;;;;;;12.70;6.80;;;;;;;11.46;63.26;99833.04;108319;1284;21985;-68
2023/11/18 14:06:06;;;;;;;13.00;6.20;;;;;;;11.45;63.33;99838.31;108188;1284;22018;-60
2023/11/18 14:08:34;;;;;;;11.40;7.30;;;;;;;11.46;63.12;99849.36;108268;1284;21993;-68
2023/11/18 14:11:00;;;;;;;12.70;6.50;;;;;;;11.46;63.04;99861.48;108335;1284;21989;-61
2023/11/18 14:13:30;;;;;;;11.50;7.00;;;;;;;11.45;62.92;99866.41;108342;1284;23745;-61
2023/11/18 14:15:59;;;;;;;9.90;7.00;;;;;;;11.46;62.97;99879.75;108264;1284;22005;-71
2023/11/18 14:18:25;;;;;;;37.20;8.80;;;;;;;11.45;62.71;99882.41;108207;1279;22023;-60
2023/11/18 14:20:52;;;;;;;28.90;7.80;;;;;;;11.40;62.76;99879.73;108250;1280;21996;-61
2023/11/18 14:23:18;;;;;;;42.50;8.40;;;;;;;11.38;62.69;99883.09;108186;1284;22051;-70
2023/11/18 14:25:45;;;;;;;35.40;8.30;;;;;;;11.35;62.65;99886.16;108177;1284;23760;-60
2023/11/18 14:28:11;;;;;;;15.30;7.30;;;;;;;11.33;62.77;99892.52;108251;1274;21987;-67
2023/11/18 14:30:38;;;;;;;17.80;8.20;;;;;;;11.35;63.03;99885.64;108177;1284;22043;-68
2023/11/18 14:33:04;;;;;;;13.90;7.40;;;;;;;11.35;62.90;99885.27;108179;1284;22024;-68
2023/11/18 14:35:30;;;;;;;12.30;6.50;;;;;;;11.35;62.83;99885.45;108164;1284;21986;-68
2023/11/18 14:37:56;;;;;;;12.80;7.40;;;;;;;11.35;62.60;99883.70;108227;1280;21984;-60
2023/11/18 14:40:23;;;;;;;14.20;7.30;;;;;;;11.35;62.60;99880.88;108397;1284;21984;-60
2023/11/18 14:42:49;;;;;;;12.20;6.60;;;;;;;11.35;62.51;99881.06;108226;1283;21988;-60
2023/11/18 14:45:15;;;;;;;12.20;7.00;;;;;;;11.35;62.66;99884.23;108115;1284;21990;-60
2023/11/18 14:47:41;;;;;;;11.80;6.90;;;;;;;11.35;62.42;99889.32;108168;1274;21990;-68
2023/11/18 14:50:17;;;;;;;9.40;6.30;;;;;;;11.34;62.36;99890.41;108072;1285;22456;-68
2023/11/18 14:52:45;;;;;;;13.60;7.60;;;;;;;11.33;62.53;99893.22;108108;1280;22017;-61
2023/11/18 14:55:12;;;;;;;12.10;8.70;;;;;;;11.32;62.48;99891.33;108315;1283;21980;-69
2023/11/18 14:57:39;;;;;;;11.50;7.40;;;;;;;11.31;62.49;99895.36;108267;1280;22034;-60
2023/11/18 15:00:07;;;;;;;11.90;7.50;;;;;;;11.33;62.50;99892.88;108345;1285;21984;-60
2023/11/18 15:02:37;;;;;;;8.90;6.60;;;;;;;11.33;62.25;99895.68;108087;1283;21999;-61
2023/11/18 15:05:08;;;;;;;8.90;6.30;;;;;;;11.32;62.22;99896.23;108142;1283;21986;-61
2023/11/18 15:07:34;;;;;;;14.20;6.40;;;;;;;11.34;62.14;99893.92;108123;1285;21983;-61
2023/11/18 15:10:00;;;;;;;9.60;6.00;;;;;;;11.31;62.30;99901.85;108068;1284;22011;-61
2023/11/18 15:12:25;;;;;;;15.00;6.70;;;;;;;11.30;62.08;99903.98;108203;1284;21994;-61
2023/11/18 15:14:51;;;;;;;10.30;6.00;;;;;;;11.29;62.09;99903.14;108295;1283;21986;-60
2023/11/18 15:17:17;;;;;;;9.70;5.80;;;;;;;11.28;62.13;99903.86;108261;1277;21998;-60
2023/11/18 15:19:42;;;;;;;10.40;6.30;;;;;;;11.28;62.16;99902.83;108143;1284;21981;-60
2023/11/18 15:22:09;;;;;;;8.60;6.10;;;;;;;11.26;62.03;99908.30;108163;1284;21980;-63
2023/11/18 15:24:35;;;;;;;11.30;7.20;;;;;;;11.26;61.94;99911.11;108220;1280;21984;-60
2023/11/18 15:27:03;;;;;;;12.80;7.20;;;;;;;11.26;61.99;99921.30;108151;1284;22021;-60
2023/11/18 15:29:37;;;;;;;11.20;6.80;;;;;;;11.27;62.12;99922.52;108237;1284;21978;-61
2023/11/18 15:32:03;;;;;;;9.60;6.90;;;;;;;11.26;62.01;99924.80;108134;1284;21984;-61
2023/11/18 15:34:29;;;;;;;10.90;7.10;;;;;;;11.26;62.09;99929.91;108230;1284;21986;-61
2023/11/18 15:36:55;;;;;;;10.30;6.80;;;;;;;11.24;61.83;99932.26;108177;1283;22044;-60
2023/11/18 15:39:23;;;;;;;9.90;6.70;;;;;;;11.22;61.72;99937.04;108211;1284;21982;-61
2023/11/18 15:41:49;;;;;;;11.00;7.10;;;;;;;11.21;61.80;99938.10;108231;1284;21984;-62
2023/11/18 15:44:16;;;;;;;11.60;7.10;;;;;;;11.21;61.78;99940.75;108200;1278;21988;-60
2023/11/18 15:46:47;;;;;;;10.90;6.90;;;;;;;11.19;61.88;99942.89;108174;1284;23637;-60
2023/11/18 15:49:13;;;;;;;12.20;7.50;;;;;;;11.19;61.96;99945.19;108099;1284;21992;-60
2023/11/18 15:51:40;;;;;;;14.10;7.90;;;;;;;11.17;61.72;99940.30;108070;1284;22019;-61
2023/11/18 15:54:06;;;;;;;13.00;7.60;;;;;;;11.13;61.63;99941.95;108094;1283;21988;-61
2023/11/18 15:56:33;;;;;;;12.50;7.80;;;;;;;11.12;61.65;99942.52;108144;1285;22002;-60
2023/11/18 15:59:00;;;;;;;12.20;7.40;;;;;;;11.12;61.58;99941.48;108107;1280;21983;-61
2023/11/18 16:01:26;;;;;;;11.70;7.50;;;;;;;11.10;61.52;99937.46;108099;1281;21981;-61
2023/11/18 16:03:52;;;;;;;8.90;6.20;;;;;;;11.09;61.62;99939.42;108070;1285;22014;-61
2023/11/18 16:06:18;;;;;;;8.20;6.10;;;;;;;11.08;61.59;99936.60;108104;1285;21986;-61
2023/11/18 16:08:47;;;;;;;9.70;6.30;;;;;;;11.07;61.39;99933.84;108104;1284;21981;-61
2023/11/18 16:11:12;;;;;;;11.20;6.60;;;;;;;11.04;61.36;99931.45;108136;1284;21983;-61
2023/11/18 16:13:38;;;;;;;9.40;5.80;;;;;;;11.02;61.50;99932.20;108070;1285;21986;-60
2023/11/18 16:16:04;;;;;;;9.10;6.30;;;;;;;11.01;61.39;99934.52;108085;1284;21983;-60
2023/11/18 16:18:30;;;;;;;8.30;6.50;;;;;;;11.00;61.46;99936.11;108097;1285;21984;-61
2023/11/18 16:20:57;;;;;;;20.40;14.20;;;;;;;10.97;61.56;99934.40;108112;1283;22451;-60
2023/11/18 16:23:23;;;;;;;13.50;9.00;;;;;;;10.96;61.70;99936.02;108189;1283;22161;-61
2023/11/18 16:25:49;;;;;;;13.90;9.40;;;;;;;10.93;61.71;99933.77;108100;1284;23544;-60
2023/11/18 16:28:15;;;;;;;12.10;7.70;;;;;;;10.92;61.74;99931.02;108109;1284;21988;-61
2023/11/18 16:30:40;;;;;;;9.30;6.80;;;;;;;10.89;61.81;99923.86;108095;1283;22022;-62
2023/11/18 16:33:07;;;;;;;8.70;6.60;;;;;;;10.85;61.90;99920.25;108100;1284;21984;-61
2023/11/18 16:35:33;;;;;;;14.10;7.40;;;;;;;10.81;61.96;99924.90;108133;1285;21983;-62
2023/11/18 16:37:59;;;;;;;12.40;7.30;;;;;;;10.78;62.09;99928.84;108088;1285;22452;-61
2023/11/18 16:40:25;;;;;;;11.90;7.70;;;;;;;10.75;62.19;99936.25;108066;1284;21982;-61
2023/11/18 16:42:52;;;;;;;10.00;6.40;;;;;;;10.73;62.29;99937.69;108082;1285;21990;-61
2023/11/18 16:45:20;;;;;;;13.10;7.40;;;;;;;10.69;62.17;99931.98;108068;1285;21988;-61
2023/11/18 16:47:50;;;;;;;9.60;6.40;;;;;;;10.64;62.36;99928.22;108140;1280;22019;-61
2023/11/18 16:50:17;;;;;;;9.70;6.80;;;;;;;10.62;62.38;99938.27;108102;1284;21991;-61
2023/11/18 16:52:43;;;;;;;9.80;6.80;;;;;;;10.60;62.55;99943.05;108128;1284;21986;-62
2023/11/18 16:55:09;;;;;;;9.50;7.40;;;;;;;10.56;62.54;99951.53;108104;1285;23035;-62
2023/11/18 16:57:35;;;;;;;11.10;6.60;;;;;;;10.53;62.76;99958.80;108084;1284;21981;-62
2023/11/18 17:00:15;;;;;;;12.20;7.80;;;;;;;10.47;62.87;99953.28;108128;1284;21980;-64
2023/11/18 17:02:41;;;;;;;14.70;6.90;;;;;;;10.45;62.93;99951.92;108102;1285;21987;-66
2023/11/18 17:05:07;;;;;;;8.70;7.00;;;;;;;10.43;63.04;99952.14;108186;1284;21976;-68
2023/11/18 17:07:33;;;;;;;11.10;7.00;;;;;;;10.40;63.10;99956.91;108001;1285;22038;-67
2023/11/18 17:09:59;;;;;;;11.00;7.60;;;;;;;10.38;63.26;99960.27;108006;1284;21986;-66
2023/11/18 17:12:24;;;;;;;11.20;7.70;;;;;;;10.35;63.24;99961.89;108059;1280;21987;-66
2023/11/18 17:14:51;;;;;;;11.10;7.70;;;;;;;10.33;63.31;99961.05;108141;1285;21991;-67
2023/11/18 17:17:17;;;;;;;10.70;7.20;;;;;;;10.30;63.54;99962.33;108072;1280;21987;-65
2023/11/18 17:19:42;;;;;;;10.30;7.80;;;;;;;10.24;63.58;99968.19;108067;1285;21989;-66
2023/11/18 17:22:10;;;;;;;36.20;21.90;;;;;;;10.23;63.52;99974.54;108073;1275;22003;-65
2023/11/18 17:24:40;;;;;;;40.70;22.70;;;;;;;10.21;63.68;99969.85;108212;1285;21981;-63
2023/11/18 17:27:06;;;;;;;34.00;21.80;;;;;;;10.19;63.60;99972.33;108185;1284;23624;-67
2023/11/18 17:29:32;;;;;;;24.60;15.50;;;;;;;10.17;63.75;99967.45;108174;1284;21991;-65
2023/11/18 17:31:58;;;;;;;18.30;12.80;;;;;;;10.14;63.83;99963.14;108212;1281;21985;-67
2023/11/18 17:34:24;;;;;;;13.90;9.00;;;;;;;10.12;63.86;99959.83;108158;1283;21985;-64
2023/11/18 17:36:53;;;;;;;13.70;8.90;;;;;;;10.12;64.07;99958.98;108044;1285;21985;-66
2023/11/18 17:39:19;;;;;;;12.70;8.50;;;;;;;10.11;64.06;99956.36;108047;1285;23781;-67
2023/11/18 17:41:44;;;;;;;11.10;7.90;;;;;;;10.08;64.25;99957.45;108035;1285;21982;-66
2023/11/18 17:44:11;;;;;;;11.00;7.20;;;;;;;10.04;64.26;99954.89;108049;1284;22182;-67
2023/11/18 17:46:37;;;;;;;11.70;8.50;;;;;;;10.02;64.25;99958.44;108170;1284;21989;-66
2023/11/18 17:49:04;;;;;;;12.60;8.50;;;;;;;10.01;64.48;99948.29;108178;1284;23098;-66
2023/11/18 17:51:32;;;;;;;12.70;7.70;;;;;;;9.98;64.61;99945.52;108218;1284;23609;-67
2023/11/18 17:53:58;;;;;;;10.30;6.80;;;;;;;9.95;64.60;99949.25;108226;1284;24360;-67
2023/11/18 17:56:24;;;;;;;11.40;7.40;;;;;;;9.92;64.69;99956.66;108073;1285;21984;-67
2023/11/18 17:58:50;;;;;;;10.30;7.70;;;;;;;9.89;64.71;99960.73;108108;1284;23634;-66
2023/11/18 18:01:17;;;;;;;11.00;8.30;;;;;;;9.87;64.90;99958.49;108146;1284;21965;-66
2023/11/18 18:03:42;;;;;;;12.40;7.40;;;;;;;9.85;64.88;99959.58;108139;1284;22023;-67
2023/11/18 18:06:15;;;;;;;9.70;6.70;;;;;;;9.84;64.83;99960.80;108064;1284;21996;-66
2023/11/18 18:08:40;;;;;;;10.70;6.60;;;;;;;9.82;64.76;99964.70;108182;1285;21981;-66
2023/11/18 18:11:09;;;;;;;10.00;6.80;;;;;;;9.80;64.92;99966.48;108299;1284;22023;-65
2023/11/18 18:13:35;;;;;;;10.50;7.00;;;;;;;9.78;64.96;99965.45;108307;1285;21989;-66
2023/11/18 18:16:01;;;;;;;10.30;6.90;;;;;;;9.76;65.04;99966.89;108374;1285;21990;-66
2023/11/18 18:18:27;;;;;;;11.10;7.10;;;;;;;9.76;64.95;99967.24;108232;1283;23640;-65
2023/11/18 18:20:52;;;;;;;11.50;6.80;;;;;;;9.75;65.01;99972.51;108125;1275;22022;-65
2023/11/18 18:23:18;;;;;;;8.40;6.40;;;;;;;9.75;65.08;99977.77;108112;1285;23729;-65
2023/11/18 18:25:44;;;;;;;12.50;7.70;;;;;;;9.72;65.01;99976.61;108015;1285;21984;-64
2023/11/18 18:28:10;;;;;;;10.80;8.50;;;;;;;9.72;65.11;99976.42;108018;1285;21983;-65
2023/11/18 18:30:36;;;;;;;12.90;8.90;;;;;;;9.69;64.99;99978.40;108030;1285;21987;-66
2023/11/18 18:33:04;;;;;;;10.70;7.40;;;;;;;9.67;65.04;99982.10;108030;1285;21992;-69
2023/11/18 18:35:30;;;;;;;14.40;9.80;;;;;;;9.65;65.24;99981.27;108141;1284;23619;-69
2023/11/18 18:37:55;;;;;;;12.40;8.80;;;;;;;9.62;65.07;99986.04;108068;1280;21987;-65
2023/11/18 18:40:22;;;;;;;13.30;8.40;;;;;;;9.59;65.36;99980.64;108194;1284;21984;-66
2023/11/18 18:42:49;;;;;;;12.40;8.60;;;;;;;9.57;65.27;99980.50;108082;1284;21983;-68
2023/11/18 18:45:15;;;;;;;13.20;8.50;;;;;;;9.54;65.36;99981.77;109369;1285;21995;-68
2023/11/18 18:47:41;;;;;;;13.00;7.90;;;;;;;9.52;65.14;99983.55;108206;1284;21990;-72
2023/11/18 18:50:08;;;;;;;11.30;8.20;;;;;;;9.51;65.34;99985.31;108242;1284;21988;-72
2023/11/18 18:52:34;;;;;;;10.60;7.60;;;;;;;9.48;65.17;99985.70;108141;1284;22051;-66
2023/11/18 18:55:00;;;;;;;12.20;8.60;;;;;;;9.45;65.26;99988.91;108173;1283;21978;-75
2023/11/18 18:57:26;;;;;;;11.80;7.70;;;;;;;9.41;65.18;99991.59;108164;1284;21980;-65
2023/11/18 18:59:52;;;;;;;10.70;7.90;;;;;;;9.37;65.44;99993.90;108171;1285;22016;-65
2023/11/18 19:02:18;;;;;;;13.30;8.50;;;;;;;9.34;65.26;99992.73;108264;1284;21985;-72
2023/11/18 19:04:44;;;;;;;12.20;8.40;;;;;;;9.31;65.43;99989.42;108181;1283;22002;-65
2023/11/18 19:07:10;;;;;;;11.80;7.20;;;;;;;9.28;65.42;99992.80;108133;1280;22002;-70
2023/11/18 19:09:36;;;;;;;10.10;7.10;;;;;;;9.27;65.40;99994.41;108183;1284;22024;-71
2023/11/18 19:12:02;;;;;;;10.50;7.20;;;;;;;9.24;65.41;99995.14;108213;1284;22017;-73
2023/11/18 19:14:27;;;;;;;12.10;7.40;;;;;;;9.20;65.19;99991.51;108135;1283;21984;-65
2023/11/18 19:16:53;;;;;;;10.70;6.70;;;;;;;9.19;65.10;99988.18;108133;1280;21986;-71
2023/11/18 19:19:19;;;;;;;9.30;7.10;;;;;;;9.19;65.38;99984.52;108105;1280;21991;-64
2023/11/18 19:21:47;;;;;;;8.70;6.10;;;;;;;9.15;65.46;99981.59;108246;1285;21991;-71
2023/11/18 19:24:14;;;;;;;10.00;6.70;;;;;;;9.13;65.47;99991.59;108192;1274;22007;-64
2023/11/18 19:26:40;;;;;;;9.90;6.90;;;;;;;9.12;65.61;99995.80;108087;1285;21983;-71
2023/11/18 19:29:05;;;;;;;11.30;7.40;;;;;;;9.10;65.24;99995.48;108254;1285;21991;-74
2023/11/18 19:31:33;;;;;;;10.00;7.10;;;;;;;9.04;65.28;99996.95;108324;1285;21988;-73
2023/11/18 19:33:59;;;;;;;11.90;7.30;;;;;;;9.00;65.37;99995.78;108333;1285;21985;-71
2023/11/18 19:36:25;;;;;;;11.00;6.40;;;;;;;8.98;65.39;99998.77;108368;1285;21995;-72
2023/11/18 19:38:51;;;;;;;11.10;6.80;;;;;;;8.98;65.23;99995.27;108275;1274;22075;-72
2023/11/18 19:41:17;;;;;;;10.60;6.90;;;;;;;8.99;65.29;99994.92;108186;1283;21987;-66
2023/11/18 19:43:42;;;;;;;12.90;8.00;;;;;;;8.97;65.21;99990.73;108155;1285;21974;-73
2023/11/18 19:46:08;;;;;;;11.50;6.90;;;;;;;8.96;65.39;99990.58;108087;1285;22056;-75
2023/11/18 19:48:35;;;;;;;9.50;6.60;;;;;;;8.91;65.60;99991.49;108284;1285;21982;-71
2023/11/18 19:51:07;;;;;;;11.40;7.50;;;;;;;8.87;65.89;100001.17;108126;1274;21996;-72
2023/11/18 19:53:33;;;;;;;10.90;7.80;;;;;;;8.85;65.77;100005.21;108118;1285;21987;-65
2023/11/18 19:56:00;;;;;;;10.30;7.50;;;;;;;8.84;65.81;100006.44;108227;1280;24467;-65
2023/11/18 19:58:26;;;;;;;9.90;7.60;;;;;;;8.82;65.85;100007.02;108203;1285;22023;-67
2023/11/18 20:00:52;;;;;;;12.50;7.90;;;;;;;8.81;65.88;100010.88;108251;1275;21984;-66
2023/11/18 20:03:24;;;;;;;11.70;7.60;;;;;;;8.81;65.88;100007.02;108124;1285;21981;-65
2023/11/18 20:05:52;;;;;;;13.10;7.80;;;;;;;8.81;65.65;100008.08;108164;1284;21982;-66
2023/11/18 20:08:18;;;;;;;10.60;7.60;;;;;;;8.80;65.88;100006.69;108205;1284;21980;-73
2023/11/18 20:10:44;;;;;;;10.30;7.30;;;;;;;8.77;65.99;100006.89;108180;1281;21981;-72
2023/11/18 20:13:11;;;;;;;11.30;7.10;;;;;;;8.75;65.93;100006.55;108248;1284;23656;-66
2023/11/18 20:15:37;;;;;;;10.80;7.40;;;;;;;8.74;65.93;100008.84;108207;1284;22018;-70
2023/11/18 20:18:05;;;;;;;11.40;7.10;;;;;;;8.72;65.75;100008.86;108198;1277;21983;-73
2023/11/18 20:20:32;;;;;;;11.10;8.00;;;;;;;8.70;65.87;100009.23;108193;1284;21986;-72
2023/11/18 20:22:57;;;;;;;11.30;7.80;;;;;;;8.69;66.00;100009.77;108336;1284;21985;-75
2023/11/18 20:25:23;;;;;;;12.30;8.40;;;;;;;8.65;65.97;100008.76;108235;1284;23611;-75
2023/11/18 20:27:49;;;;;;;12.70;9.00;;;;;;;8.60;65.88;100017.38;108191;1284;21980;-67
2023/11/18 20:30:14;;;;;;;11.60;8.70;;;;;;;8.54;66.08;100015.52;108259;1284;23037;-75
2023/11/18 20:32:41;;;;;;;11.90;8.60;;;;;;;8.52;66.23;100017.98;108234;1285;21987;-77
2023/11/18 20:35:08;;;;;;;12.90;9.30;;;;;;;8.48;66.43;100013.10;108236;1285;23686;-74
2023/11/18 20:37:34;;;;;;;13.40;8.70;;;;;;;8.47;66.52;100015.39;108217;1284;21988;-67
2023/11/18 20:40:00;;;;;;;16.10;9.50;;;;;;;8.50;66.79;100022.55;108142;1273;21996;-75
2023/11/18 20:42:26;;;;;;;13.70;8.60;;;;;;;8.52;66.84;100020.78;108238;1285;22453;-67
2023/11/18 20:44:51;;;;;;;14.10;8.30;;;;;;;8.51;66.86;100016.42;108226;1284;22040;-75
2023/11/18 20:47:17;;;;;;;11.50;8.00;;;;;;;8.49;66.88;100018.18;108272;1284;21987;-68
2023/11/18 20:49:43;;;;;;;10.80;8.00;;;;;;;8.49;66.95;100020.98;108233;1284;21988;-75
2023/11/18 20:52:09;;;;;;;11.60;8.00;;;;;;;8.49;66.94;100025.87;108269;1281;23650;-76
2023/11/18 20:54:36;;;;;;;10.10;7.40;;;;;;;8.45;67.19;100030.08;108179;1284;23042;-67
2023/11/18 20:57:02;;;;;;;12.10;8.40;;;;;;;8.43;66.83;100046.00;108305;1284;22025;-75
2023/11/18 20:59:31;;;;;;;11.80;7.90;;;;;;;8.45;66.83;100041.80;108251;1273;21991;-65
2023/11/18 21:01:56;;;;;;;13.00;7.80;;;;;;;8.45;66.85;100047.92;108212;1284;21984;-74
2023/11/18 21:04:22;;;;;;;10.30;7.40;;;;;;;8.46;66.75;100046.51;108205;1281;21986;-66
2023/11/18 21:06:48;;;;;;;10.90;7.20;;;;;;;8.49;66.65;100051.57;108137;1279;21991;-73
2023/11/18 21:09:13;;;;;;;10.70;7.50;;;;;;;8.47;66.75;100044.58;108095;1278;22006;-75
2023/11/18 21:11:39;;;;;;;10.90;7.00;;;;;;;8.41;66.85;100033.95;108303;1285;21986;-67
2023/11/18 21:14:05;;;;;;;11.50;7.20;;;;;;;8.38;66.43;100035.22;108331;1285;21989;-76
2023/11/18 21:16:31;;;;;;;9.30;6.80;;;;;;;8.34;66.35;100044.70;108317;1277;21988;-76
2023/11/18 21:19:00;;;;;;;10.90;7.80;;;;;;;8.31;66.10;100046.30;108291;1285;21995;-74
2023/11/18 21:21:26;;;;;;;12.20;7.10;;;;;;;8.26;66.00;100046.67;108339;1285;21990;-74
2023/11/18 21:23:52;;;;;;;9.50;6.00;;;;;;;8.18;66.24;100046.73;108376;1285;23634;-65
2023/11/18 21:26:19;;;;;;;9.00;6.10;;;;;;;8.11;66.40;100052.55;108237;1284;21991;-65
2023/11/18 21:28:47;;;;;;;10.40;6.80;;;;;;;8.04;66.74;100050.67;108177;1285;21984;-66
2023/11/18 21:31:15;;;;;;;8.90;5.50;;;;;;;8.03;66.70;100054.70;108098;1285;23123;-68
2023/11/18 21:33:40;;;;;;;10.10;6.50;;;;;;;8.00;67.08;100051.74;108111;1285;23081;-74
2023/11/18 21:36:07;;;;;;;7.60;4.70;;;;;;;7.97;67.28;100056.33;108184;1285;21995;-73
2023/11/18 21:38:33;;;;;;;7.10;5.00;;;;;;;7.95;67.11;100049.17;108263;1277;21991;-64
2023/11/18 21:40:59;;;;;;;7.50;5.30;;;;;;;7.95;67.08;100058.27;108143;1285;21991;-73
2023/11/18 21:43:25;;;;;;;8.80;5.60;;;;;;;7.93;67.65;100052.69;108170;1285;21990;-71
2023/11/18 21:45:51;;;;;;;9.40;5.40;;;;;;;7.91;67.38;100055.85;108016;1274;21981;-65
2023/11/18 21:48:20;;;;;;;7.30;4.60;;;;;;;7.90;67.17;100054.80;108086;1285;22008;-65
2023/11/18 21:50:47;;;;;;;8.30;4.60;;;;;;;7.87;66.96;100062.50;108098;1285;21992;-75
2023/11/18 21:53:13;;;;;;;6.80;4.50;;;;;;;7.84;67.07;100060.42;108120;1285;22028;-75
2023/11/18 21:55:38;;;;;;;5.50;4.10;;;;;;;7.82;67.19;100059.04;108088;1277;21978;-64
2023/11/18 21:58:04;;;;;;;8.20;4.70;;;;;;;7.77;67.68;100056.45;108081;1285;21982;-74
2023/11/18 22:00:31;;;;;;;7.00;4.50;;;;;;;7.76;67.32;100058.56;108134;1277;22101;-64
2023/11/18 22:02:57;;;;;;;7.30;4.60;;;;;;;7.73;66.99;100052.45;108159;1285;21986;-73
2023/11/18 22:05:23;;;;;;;6.60;4.70;;;;;;;7.72;67.33;100051.95;108284;1285;22474;-64
2023/11/18 22:07:48;;;;;;;8.20;4.50;;;;;;;7.71;67.11;100058.23;108106;1286;21994;-64
2023/11/18 22:10:16;;;;;;;7.10;4.50;;;;;;;7.69;67.24;100057.73;108117;1283;22019;-68
2023/11/18 22:12:42;;;;;;;6.70;5.00;;;;;;;7.69;67.26;100064.19;108210;1277;21992;-74
2023/11/18 22:15:08;;;;;;;7.30;4.60;;;;;;;7.70;67.19;100058.23;108295;1285;21989;-74
2023/11/18 22:17:37;;;;;;;7.80;4.60;;;;;;;7.69;67.11;100058.95;108201;1284;21988;-72
2023/11/18 22:20:08;;;;;;;8.80;4.90;;;;;;;7.68;67.13;100062.09;108239;1277;21984;-65